createdAt,value
2017-08-22T00:00:45.577Z,83.37
2017-08-22T00:03:13.184Z,83.16
2017-08-22T00:05:40.787Z,83.44
2017-08-22T00:08:08.739Z,83.12
2017-08-22T00:10:36.320Z,83.11
2017-08-22T00:13:03.907Z,82.92
2017-08-22T00:15:31.568Z,83.43
2017-08-22T00:17:59.163Z,82.95
2017-08-22T00:20:26.804Z,83.29
2017-08-22T00:22:54.426Z,82.99
2017-08-22T00:25:22.374Z,82.80
2017-08-22T00:27:49.939Z,82.49
2017-08-22T00:30:17.530Z,83.39
2017-08-22T00:32:45.141Z,83.67
2017-08-22T00:35:12.737Z,83.51
2017-08-22T00:37:40.358Z,83.02
2017-08-22T00:40:07.970Z,83.42
2017-08-22T00:42:35.596Z,83.25
2017-08-22T00:45:03.192Z,83.15
2017-08-22T00:47:31.236Z,83.59
2017-08-22T00:49:58.843Z,83.39
2017-08-22T00:52:26.433Z,83.44
2017-08-22T00:54:54.034Z,83.29
2017-08-22T00:57:21.610Z,83.65
2017-08-22T00:59:49.229Z,83.52
2017-08-22T01:02:17.006Z,83.55
2017-08-22T01:04:44.620Z,83.44
2017-08-22T01:07:12.232Z,83.56
2017-08-22T01:09:40.190Z,83.35
2017-08-22T01:12:07.806Z,83.49
2017-08-22T01:14:35.467Z,83.63
2017-08-22T01:17:03.071Z,84.05
2017-08-22T01:19:30.687Z,84.55
2017-08-22T01:21:58.314Z,84.48
2017-08-22T01:24:25.897Z,84.24
2017-08-22T01:26:53.497Z,84.74
2017-08-22T01:29:21.085Z,84.21
2017-08-22T01:31:48.670Z,84.55
2017-08-22T01:34:16.285Z,84.49
2017-08-22T01:36:43.887Z,84.71
2017-08-22T01:39:11.504Z,84.52
2017-08-22T01:41:39.087Z,84.64
2017-08-22T01:44:07.167Z,85.04
2017-08-22T01:46:34.819Z,84.82
2017-08-22T01:49:02.619Z,84.91
2017-08-22T01:51:54.914Z,84.90
2017-08-22T01:54:22.874Z,84.62
2017-08-22T01:56:50.469Z,84.39
2017-08-22T01:59:18.073Z,84.40
2017-08-22T02:01:45.710Z,84.14
2017-08-22T02:04:13.303Z,84.31
2017-08-22T02:06:41.260Z,84.14
2017-08-22T02:09:08.837Z,83.96
2017-08-22T02:11:36.419Z,84.14
2017-08-22T02:14:04.031Z,84.05
2017-08-22T02:16:31.643Z,83.70
2017-08-22T02:18:59.494Z,83.95
2017-08-22T02:21:27.092Z,84.28
2017-08-22T02:23:54.672Z,84.03
2017-08-22T02:26:22.300Z,84.29
2017-08-22T02:28:49.901Z,84.07
2017-08-22T02:31:17.832Z,84.12
2017-08-22T02:33:45.415Z,84.41
2017-08-22T02:36:12.987Z,83.93
2017-08-22T02:38:40.608Z,84.44
2017-08-22T02:41:09.188Z,84.42
2017-08-22T02:43:36.811Z,84.68
2017-08-22T02:46:04.394Z,84.98
2017-08-22T02:48:32.384Z,84.89
2017-08-22T02:50:59.968Z,84.80
2017-08-22T02:53:27.933Z,85.09
2017-08-22T02:55:55.536Z,84.99
2017-08-22T02:58:23.121Z,84.87
2017-08-22T03:00:50.718Z,84.73
2017-08-22T03:03:18.316Z,84.57
2017-08-22T03:05:45.938Z,84.91
2017-08-22T03:08:13.556Z,84.68
2017-08-22T03:10:54.588Z,84.97
2017-08-22T03:13:22.206Z,84.06
2017-08-22T03:15:50.177Z,84.99
2017-08-22T03:18:17.785Z,84.10
2017-08-22T03:20:45.383Z,84.90
2017-08-22T03:23:12.988Z,84.60
2017-08-22T03:25:40.698Z,84.37
2017-08-22T03:28:08.314Z,84.84
2017-08-22T03:30:39.846Z,84.50
2017-08-22T03:33:07.769Z,84.47
2017-08-22T03:35:35.363Z,84.53
2017-08-22T03:38:02.958Z,84.04
2017-08-22T03:40:30.578Z,83.90
2017-08-22T03:42:58.183Z,83.94
2017-08-22T03:45:25.782Z,84.05
2017-08-22T03:47:53.385Z,84.19
2017-08-22T03:50:20.965Z,84.36
2017-08-22T03:52:48.576Z,84.07
2017-08-22T03:55:16.178Z,83.98
2017-08-22T03:57:44.184Z,84.27
2017-08-22T04:00:11.804Z,84.93
2017-08-22T04:02:39.404Z,85.26
2017-08-22T04:05:07.028Z,85.35
2017-08-22T04:07:34.605Z,84.86
2017-08-22T04:10:02.199Z,84.75
2017-08-22T04:12:29.798Z,85.13
2017-08-22T04:14:57.756Z,85.32
2017-08-22T04:17:25.348Z,85.70
2017-08-22T04:19:52.943Z,85.58
2017-08-22T04:22:20.551Z,85.33
2017-08-22T04:24:48.235Z,85.22
2017-08-22T04:27:20.143Z,84.73
2017-08-22T04:29:47.738Z,84.77
2017-08-22T04:32:15.621Z,85.07
2017-08-22T04:34:43.245Z,84.84
2017-08-22T04:37:10.842Z,85.25
2017-08-22T04:39:38.464Z,84.97
2017-08-22T04:42:06.111Z,85.37
2017-08-22T04:44:33.732Z,84.99
2017-08-22T04:47:01.341Z,84.86
2017-08-22T04:49:29.334Z,83.88
2017-08-22T04:51:56.938Z,84.02
2017-08-22T04:54:24.536Z,84.10
2017-08-22T04:56:52.264Z,84.26
2017-08-22T04:59:19.873Z,83.84
2017-08-22T05:01:47.798Z,84.66
2017-08-22T05:04:15.392Z,84.77
2017-08-22T05:06:43.098Z,85.14
2017-08-22T05:09:10.706Z,84.90
2017-08-22T05:11:38.291Z,84.94
2017-08-22T05:14:06.265Z,84.77
2017-08-22T05:16:33.857Z,84.80
2017-08-22T05:19:01.566Z,84.32
2017-08-22T05:21:29.189Z,84.88
2017-08-22T05:23:56.791Z,85.69
2017-08-22T05:26:24.445Z,85.61
2017-08-22T05:28:52.053Z,86.07
2017-08-22T05:31:19.999Z,84.81
2017-08-22T05:33:47.615Z,84.97
2017-08-22T05:36:15.215Z,84.16
2017-08-22T05:38:42.848Z,83.81
2017-08-22T05:41:10.593Z,84.51
2017-08-22T05:43:38.199Z,84.06
2017-08-22T05:46:05.825Z,84.54
2017-08-22T05:48:33.730Z,84.84
2017-08-22T05:51:01.352Z,85.15
2017-08-22T05:53:28.948Z,85.35
2017-08-22T05:55:56.616Z,85.48
2017-08-22T05:58:24.391Z,85.50
2017-08-22T06:00:52.280Z,84.90
2017-08-22T06:03:19.958Z,85.15
2017-08-22T06:05:47.540Z,84.76
2017-08-22T06:08:15.204Z,85.54
2017-08-22T06:10:42.811Z,85.62
2017-08-22T06:13:10.768Z,85.92
2017-08-22T06:15:38.358Z,84.95
2017-08-22T06:18:05.933Z,85.25
2017-08-22T06:20:33.527Z,85.78
2017-08-22T06:23:01.115Z,84.86
2017-08-22T06:25:29.175Z,84.88
2017-08-22T06:27:56.884Z,84.63
2017-08-22T06:30:24.484Z,84.42
2017-08-22T06:32:52.346Z,85.23
2017-08-22T06:35:20.299Z,85.10
2017-08-22T06:37:48.208Z,84.71
2017-08-22T06:40:15.819Z,84.20
2017-08-22T06:42:43.611Z,83.73
2017-08-22T06:45:11.245Z,83.58
2017-08-22T06:47:38.860Z,83.02
2017-08-22T06:50:06.500Z,83.24
2017-08-22T06:52:34.121Z,82.81
2017-08-22T06:55:02.037Z,83.10
2017-08-22T06:57:29.648Z,82.14
2017-08-22T06:59:57.252Z,82.14
2017-08-22T07:02:24.900Z,82.00
2017-08-22T07:04:52.490Z,83.09
2017-08-22T07:07:20.485Z,82.96
2017-08-22T07:09:48.095Z,82.21
2017-08-22T07:12:15.701Z,82.63
2017-08-22T07:14:43.452Z,82.49
2017-08-22T07:17:11.168Z,82.66
2017-08-22T07:19:39.101Z,81.49
2017-08-22T07:22:06.714Z,80.87
2017-08-22T07:24:34.301Z,80.55
2017-08-22T07:27:01.919Z,80.28
2017-08-22T07:29:29.514Z,80.33
2017-08-22T07:31:57.490Z,79.94
2017-08-22T07:34:25.105Z,79.01
2017-08-22T07:36:52.681Z,79.01
2017-08-22T07:39:20.885Z,80.42
2017-08-22T07:41:48.493Z,80.39
2017-08-22T07:44:16.088Z,80.15
2017-08-22T07:46:43.706Z,80.47
2017-08-22T07:49:11.410Z,79.16
2017-08-22T07:51:39.025Z,79.63
2017-08-22T07:54:06.627Z,79.06
2017-08-22T07:56:34.644Z,78.94
2017-08-22T07:59:02.366Z,78.24
2017-08-22T08:01:29.949Z,78.65
2017-08-22T08:03:57.900Z,77.18
2017-08-22T08:06:25.508Z,77.25
2017-08-22T08:08:53.272Z,77.06
2017-08-22T08:11:20.877Z,76.28
2017-08-22T08:13:48.887Z,76.63
2017-08-22T08:16:16.835Z,75.24
2017-08-22T08:18:44.439Z,73.84
2017-08-22T08:21:12.100Z,74.32
2017-08-22T08:23:39.726Z,73.87
2017-08-22T08:26:07.714Z,73.33
2017-08-22T08:28:35.312Z,73.71
2017-08-22T08:31:02.935Z,72.58
2017-08-22T08:33:30.572Z,70.10
2017-08-22T08:35:58.163Z,68.38
2017-08-22T08:38:26.153Z,65.77
2017-08-22T08:40:53.745Z,64.70
2017-08-22T08:43:21.366Z,64.71
2017-08-22T08:45:49.412Z,61.94
2017-08-22T08:48:17.003Z,61.79
2017-08-22T08:50:44.632Z,64.17
2017-08-22T08:53:12.243Z,63.58
2017-08-22T08:55:39.816Z,64.04
2017-08-22T08:58:08.023Z,63.58
2017-08-22T09:00:35.721Z,60.60
2017-08-22T09:03:03.351Z,60.00
2017-08-22T09:05:31.030Z,59.75
2017-08-22T09:07:58.985Z,59.76
2017-08-22T09:10:26.579Z,61.35
2017-08-22T09:12:54.168Z,58.19
2017-08-22T09:15:21.770Z,56.80
2017-08-22T09:17:49.363Z,57.06
2017-08-22T09:20:16.982Z,56.29
2017-08-22T09:22:44.596Z,55.52
2017-08-22T09:25:13.667Z,55.48
2017-08-22T09:27:41.550Z,55.30
2017-08-22T09:30:09.160Z,57.30
2017-08-22T09:32:36.745Z,56.66
2017-08-22T09:35:04.354Z,54.75
2017-08-22T09:37:31.955Z,54.80
2017-08-22T09:39:59.591Z,54.38
2017-08-22T09:42:27.221Z,53.68
2017-08-22T09:44:55.262Z,53.99
2017-08-22T09:47:22.906Z,54.57
2017-08-22T09:49:50.679Z,52.39
2017-08-22T09:52:18.376Z,53.39
2017-08-22T09:54:45.970Z,51.58
2017-08-22T09:57:13.557Z,51.71
2017-08-22T09:59:41.168Z,51.26
2017-08-22T10:02:08.772Z,48.54
2017-08-22T10:04:36.391Z,48.05
2017-08-22T10:07:03.994Z,51.24
2017-08-22T10:09:32.015Z,51.72
2017-08-22T10:11:59.608Z,51.13
2017-08-22T10:14:27.251Z,50.31
2017-08-22T10:16:55.177Z,50.45
2017-08-22T10:19:22.794Z,49.30
2017-08-22T10:21:50.413Z,49.06
2017-08-22T10:24:18.030Z,52.50
2017-08-22T10:26:45.632Z,52.60
2017-08-22T10:29:13.267Z,51.70
2017-08-22T10:31:40.864Z,51.45
2017-08-22T10:34:08.796Z,51.36
2017-08-22T10:36:36.391Z,47.29
2017-08-22T10:39:03.989Z,49.85
2017-08-22T10:41:31.637Z,49.46
2017-08-22T10:43:59.221Z,49.79
2017-08-22T10:46:26.913Z,52.69
2017-08-22T10:48:54.630Z,51.06
2017-08-22T10:51:22.562Z,50.62
2017-08-22T10:53:50.190Z,47.69
2017-08-22T10:56:17.803Z,48.95
2017-08-22T10:58:45.746Z,47.58
2017-08-22T11:01:13.355Z,47.59
2017-08-22T11:03:40.966Z,49.41
2017-08-22T11:06:08.621Z,45.69
2017-08-22T11:08:36.238Z,47.85
2017-08-22T11:11:03.851Z,48.79
2017-08-22T11:13:31.569Z,48.34
2017-08-22T11:15:59.195Z,48.62
2017-08-22T11:18:26.787Z,48.70
2017-08-22T11:20:54.396Z,48.24
2017-08-22T11:23:22.365Z,47.62
2017-08-22T11:25:49.945Z,47.86
2017-08-22T11:28:17.548Z,49.42
2017-08-22T11:30:45.180Z,48.30
2017-08-22T11:33:12.796Z,51.29
2017-08-22T11:35:41.490Z,49.35
2017-08-22T11:38:09.070Z,50.51
2017-08-22T11:40:36.653Z,48.51
2017-08-22T11:43:04.270Z,46.41
2017-08-22T11:45:31.878Z,47.05
2017-08-22T11:47:59.784Z,48.42
2017-08-22T11:50:27.362Z,49.64
2017-08-22T11:52:55.009Z,51.36
2017-08-22T11:55:22.636Z,47.19
2017-08-22T11:57:50.214Z,51.76
2017-08-22T12:00:17.861Z,49.39
2017-08-22T12:02:45.450Z,53.27
2017-08-22T12:05:13.444Z,47.38
2017-08-22T12:07:41.037Z,47.23
2017-08-22T12:10:08.638Z,43.99
2017-08-22T12:12:36.360Z,47.34
2017-08-22T12:15:03.972Z,46.79
2017-08-22T12:17:31.618Z,44.98
2017-08-22T12:19:59.235Z,44.66
2017-08-22T12:22:27.260Z,48.73
2017-08-22T12:24:54.993Z,48.81
2017-08-22T12:27:22.585Z,44.15
2017-08-22T12:29:50.300Z,46.40
2017-08-22T12:32:17.917Z,45.46
2017-08-22T12:34:45.913Z,45.97
2017-08-22T12:37:13.511Z,42.04
2017-08-22T12:39:41.125Z,45.87
2017-08-22T12:42:08.764Z,48.69
2017-08-22T12:44:36.357Z,46.02
2017-08-22T12:47:03.995Z,48.45
2017-08-22T12:49:31.591Z,47.02
2017-08-22T12:51:59.662Z,47.95
2017-08-22T12:54:27.402Z,49.36
2017-08-22T12:56:54.986Z,47.79
2017-08-22T12:59:22.637Z,44.98
2017-08-22T13:01:50.258Z,45.98
2017-08-22T13:04:18.234Z,47.90
2017-08-22T13:06:45.827Z,49.43
2017-08-22T13:09:13.535Z,50.16
2017-08-22T13:11:41.156Z,46.80
2017-08-22T13:14:08.787Z,46.14
2017-08-22T13:16:36.410Z,51.64
2017-08-22T13:19:04.062Z,46.08
2017-08-22T13:21:31.939Z,43.87
2017-08-22T13:23:59.568Z,49.04
2017-08-22T13:26:27.183Z,46.28
2017-08-22T13:28:54.823Z,48.40
2017-08-22T13:31:22.422Z,45.86
2017-08-22T13:33:50.023Z,43.98
2017-08-22T13:36:17.591Z,45.92
2017-08-22T13:38:45.232Z,44.87
2017-08-22T13:41:12.835Z,44.55
2017-08-22T13:43:40.458Z,43.29
2017-08-22T13:46:08.052Z,44.52
2017-08-22T13:48:35.669Z,43.11
2017-08-22T13:51:03.286Z,45.55
2017-08-22T13:53:30.877Z,43.06
2017-08-22T13:55:58.866Z,41.72
2017-08-22T13:58:26.481Z,42.18
2017-08-22T14:00:54.100Z,43.53
2017-08-22T14:03:21.733Z,47.89
2017-08-22T14:05:49.344Z,44.64
2017-08-22T14:08:16.931Z,45.17
2017-08-22T14:10:44.536Z,42.65
2017-08-22T14:13:43.220Z,46.41
2017-08-22T14:16:10.836Z,39.52
2017-08-22T14:18:38.440Z,43.67
2017-08-22T14:21:06.418Z,47.24
2017-08-22T14:23:34.008Z,45.12
2017-08-22T14:26:01.611Z,42.74
2017-08-22T14:28:29.245Z,42.58
2017-08-22T14:30:56.835Z,40.34
2017-08-22T14:33:24.458Z,40.63
2017-08-22T14:35:52.041Z,39.62
2017-08-22T14:38:19.671Z,39.02
2017-08-22T14:40:47.277Z,39.05
2017-08-22T14:43:15.219Z,41.04
2017-08-22T14:45:42.823Z,40.83
2017-08-22T14:48:10.402Z,40.30
2017-08-22T14:50:38.050Z,40.50
2017-08-22T14:53:05.763Z,40.12
2017-08-22T14:55:33.545Z,39.24
2017-08-22T14:58:01.140Z,42.91
2017-08-22T15:00:29.127Z,43.04
2017-08-22T15:02:56.714Z,43.63
2017-08-22T15:05:24.377Z,41.51
2017-08-22T15:07:52.297Z,41.83
2017-08-22T15:10:19.945Z,44.33
2017-08-22T15:12:47.566Z,40.60
2017-08-22T15:15:16.357Z,42.07
2017-08-22T15:17:43.962Z,42.85
2017-08-22T15:20:11.573Z,42.64
2017-08-22T15:25:13.314Z,39.53
2017-08-22T15:27:40.925Z,39.33
2017-08-22T15:30:08.516Z,42.07
2017-08-22T15:32:36.110Z,40.12
2017-08-22T15:35:03.721Z,41.54
2017-08-22T15:37:31.766Z,41.92
2017-08-22T15:39:59.382Z,43.60
2017-08-22T15:42:26.966Z,42.31
2017-08-22T15:44:54.676Z,43.38
2017-08-22T15:47:22.456Z,43.45
2017-08-22T15:49:50.102Z,42.28
2017-08-22T15:52:17.703Z,42.01
2017-08-22T15:54:45.921Z,40.34
2017-08-22T15:57:13.542Z,39.36
2017-08-22T15:59:41.142Z,42.14
2017-08-22T16:02:08.767Z,41.96
2017-08-22T16:04:36.555Z,41.02
2017-08-22T16:07:04.172Z,44.20
2017-08-22T16:09:31.989Z,44.97
2017-08-22T16:11:59.950Z,41.86
2017-08-22T16:14:27.560Z,44.43
2017-08-22T16:16:55.150Z,44.44
2017-08-22T16:19:22.811Z,47.26
2017-08-22T16:21:50.444Z,46.88
2017-08-22T16:24:18.482Z,46.69
2017-08-22T16:26:46.093Z,47.27
2017-08-22T16:29:13.696Z,48.26
2017-08-22T16:31:41.349Z,46.26
2017-08-22T16:34:08.939Z,45.71
2017-08-22T16:36:36.558Z,45.00
2017-08-22T16:39:04.145Z,45.27
2017-08-22T16:41:31.820Z,44.88
2017-08-22T16:43:59.791Z,48.30
2017-08-22T16:46:27.725Z,47.62
2017-08-22T16:48:55.369Z,46.05
2017-08-22T16:51:23.013Z,45.51
2017-08-22T16:53:50.679Z,46.62
2017-08-22T16:56:18.957Z,48.19
2017-08-22T16:58:46.625Z,49.57
2017-08-22T17:01:14.249Z,47.38
2017-08-22T17:03:42.183Z,49.40
2017-08-22T17:06:09.907Z,49.81
2017-08-22T17:08:37.661Z,51.54
2017-08-22T17:11:05.335Z,47.10
2017-08-22T17:13:32.999Z,49.20
2017-08-22T17:16:01.024Z,47.99
2017-08-22T17:18:28.731Z,47.04
2017-08-22T17:20:56.555Z,47.34
2017-08-22T17:23:24.414Z,47.52
2017-08-22T17:25:57.868Z,48.13
2017-08-22T17:28:25.586Z,48.22
2017-08-22T17:30:53.256Z,49.95
2017-08-22T17:33:21.225Z,50.51
2017-08-22T17:35:48.856Z,49.90
2017-08-22T17:38:16.639Z,51.17
2017-08-22T17:40:44.387Z,51.50
2017-08-22T17:43:12.601Z,52.45
2017-08-22T17:45:40.261Z,51.98
2017-08-22T17:48:07.910Z,51.94
2017-08-22T17:50:35.587Z,51.82
2017-08-22T17:53:03.227Z,52.00
2017-08-22T17:55:31.467Z,52.23
2017-08-22T17:57:59.147Z,52.64
2017-08-22T18:00:26.778Z,52.82
2017-08-22T18:02:54.587Z,53.26
2017-08-22T18:05:22.227Z,53.57
2017-08-22T18:07:49.981Z,54.29
2017-08-22T18:10:17.626Z,54.52
2017-08-22T18:12:50.983Z,55.07
2017-08-22T18:15:18.625Z,56.08
2017-08-22T18:17:46.347Z,56.06
2017-08-22T18:20:14.067Z,58.07
2017-08-22T18:22:42.039Z,58.24
2017-08-22T18:25:09.672Z,59.01
2017-08-22T18:27:37.408Z,58.55
2017-08-22T18:30:05.036Z,58.93
2017-08-22T18:32:32.672Z,59.29
2017-08-22T18:35:00.346Z,60.00
2017-08-22T18:37:28.106Z,59.37
2017-08-22T18:39:55.757Z,60.80
2017-08-22T18:42:23.450Z,61.78
2017-08-22T18:44:52.439Z,63.43
2017-08-22T18:47:20.057Z,63.72
2017-08-22T18:49:48.003Z,63.51
2017-08-22T18:52:15.611Z,63.83
2017-08-22T18:54:43.219Z,64.98
2017-08-22T18:57:11.100Z,66.00
2017-08-22T18:59:38.755Z,66.56
2017-08-22T19:02:06.617Z,66.55
2017-08-22T19:04:34.250Z,66.01
2017-08-22T19:07:02.319Z,66.96
2017-08-22T19:09:29.951Z,67.44
2017-08-22T19:11:57.577Z,68.32
2017-08-22T19:14:25.214Z,69.38
2017-08-22T19:16:52.883Z,70.18
2017-08-22T19:19:20.648Z,70.84
2017-08-22T19:21:48.308Z,71.59
2017-08-22T19:24:16.056Z,71.49
2017-08-22T19:26:43.711Z,71.74
2017-08-22T19:29:11.372Z,72.37
2017-08-22T19:31:38.997Z,72.41
2017-08-22T19:34:07.124Z,72.29
2017-08-22T19:36:34.750Z,72.44
2017-08-22T19:39:02.369Z,72.73
2017-08-22T19:41:30.337Z,72.16
2017-08-22T19:43:57.982Z,72.54
2017-08-22T19:46:25.598Z,72.39
2017-08-22T19:48:53.298Z,72.25
2017-08-22T19:51:20.933Z,73.00
2017-08-22T19:53:48.566Z,72.97
2017-08-22T19:56:16.179Z,73.87
2017-08-22T19:58:43.810Z,74.50
2017-08-22T20:01:11.405Z,74.75
2017-08-22T20:03:39.119Z,74.53
2017-08-22T20:06:06.742Z,74.74
2017-08-22T20:08:34.775Z,74.60
2017-08-22T20:11:02.383Z,75.42
2017-08-22T20:13:30.005Z,74.68
2017-08-22T20:15:57.669Z,75.06
2017-08-22T20:18:25.283Z,74.95
2017-08-22T20:20:52.916Z,74.83
2017-08-22T20:23:20.593Z,75.36
2017-08-22T20:25:48.273Z,75.09
2017-08-22T20:28:15.974Z,75.39
2017-08-22T20:30:43.944Z,75.81
2017-08-22T20:33:11.574Z,76.49
2017-08-22T20:35:39.200Z,77.14
2017-08-22T20:38:06.847Z,77.79
2017-08-22T20:40:34.481Z,77.62
2017-08-22T20:43:02.112Z,77.77
2017-08-22T20:45:29.729Z,78.06
2017-08-22T20:47:57.718Z,78.49
2017-08-22T20:50:25.355Z,78.74
2017-08-22T20:52:53.018Z,77.96
2017-08-22T20:55:20.684Z,77.34
2017-08-22T20:57:48.282Z,77.41
2017-08-22T21:00:15.922Z,77.31
2017-08-22T21:02:43.544Z,77.33
2017-08-22T21:05:11.552Z,78.11
2017-08-22T21:07:39.165Z,77.10
2017-08-22T21:10:06.826Z,77.90
2017-08-22T21:12:34.440Z,77.81
2017-08-22T21:15:02.036Z,77.60
2017-08-22T21:17:29.686Z,77.65
2017-08-22T21:19:57.335Z,77.80
2017-08-22T21:22:25.294Z,77.89
2017-08-22T21:24:52.920Z,78.29
2017-08-22T21:27:20.534Z,77.78
2017-08-22T21:29:48.227Z,78.67
2017-08-22T21:32:15.912Z,78.62
2017-08-22T21:34:43.568Z,79.39
2017-08-22T21:37:11.158Z,78.80
2017-08-22T21:39:39.249Z,78.82
2017-08-22T21:42:06.865Z,79.31
2017-08-22T21:44:34.480Z,79.38
2017-08-22T21:47:02.112Z,79.30
2017-08-22T21:49:29.728Z,79.61
2017-08-22T21:51:57.394Z,79.87
2017-08-22T21:54:25.007Z,79.67
2017-08-22T21:56:52.679Z,79.59
2017-08-22T21:59:20.295Z,80.11
2017-08-22T22:01:48.308Z,80.50
2017-08-22T22:04:15.938Z,80.13
2017-08-22T22:06:43.529Z,80.72
2017-08-22T22:09:11.164Z,80.35
2017-08-22T22:11:38.772Z,80.52
2017-08-22T22:14:06.413Z,80.62
2017-08-22T22:16:34.123Z,80.68
2017-08-22T22:19:02.090Z,80.59
2017-08-22T22:21:29.737Z,80.64
2017-08-22T22:23:57.525Z,81.07
2017-08-22T22:26:25.253Z,80.96
2017-08-22T22:28:53.004Z,81.46
2017-08-22T22:31:20.773Z,81.12
2017-08-22T22:33:48.434Z,81.32
2017-08-22T22:36:16.093Z,81.79
2017-08-22T22:38:43.784Z,81.98
2017-08-22T22:41:11.797Z,81.61
2017-08-22T22:43:39.413Z,81.31
2017-08-22T22:46:07.068Z,81.54
2017-08-22T22:48:34.710Z,81.30
2017-08-22T22:51:02.354Z,81.80
2017-08-22T22:53:29.983Z,81.51
2017-08-22T22:55:57.594Z,81.78
2017-08-22T22:58:25.491Z,81.67
2017-08-22T23:00:53.109Z,81.84
2017-08-22T23:03:20.746Z,81.74
2017-08-22T23:05:48.419Z,81.48
2017-08-22T23:08:16.209Z,81.28
2017-08-22T23:10:43.839Z,81.56
2017-08-22T23:13:11.448Z,81.43
2017-08-22T23:15:39.346Z,81.84
2017-08-22T23:18:06.969Z,81.66
2017-08-22T23:20:34.591Z,81.74
2017-08-22T23:23:02.212Z,81.87
2017-08-22T23:25:29.808Z,81.92
2017-08-22T23:27:57.448Z,82.27
2017-08-22T23:30:25.085Z,82.82
2017-08-22T23:32:52.782Z,82.87
2017-08-22T23:35:20.430Z,82.74
2017-08-22T23:37:48.437Z,83.01
2017-08-22T23:40:16.032Z,82.66
2017-08-22T23:42:49.510Z,82.75
2017-08-22T23:45:17.142Z,82.68
2017-08-22T23:47:44.951Z,83.22
2017-08-22T23:50:12.607Z,82.86
2017-08-22T23:52:40.225Z,82.52
2017-08-22T23:55:08.018Z,82.67
2017-08-22T23:57:35.633Z,82.40
